createdAt,value
2023-04-12T00:00:12.097Z,9.53
2023-04-12T00:02:42.625Z,8.97
2023-04-12T00:05:11.901Z,8.80
2023-04-12T00:07:42.804Z,9.73
2023-04-12T00:10:12.829Z,10.10
2023-04-12T00:12:42.032Z,9.07
2023-04-12T00:15:11.097Z,9.23
2023-04-12T00:17:39.566Z,9.80
2023-04-12T00:20:12.639Z,10.17
2023-04-12T00:22:42.714Z,9.70
2023-04-12T00:25:12.750Z,9.90
2023-04-12T00:27:41.204Z,10.23
2023-04-12T00:30:10.166Z,11.47
2023-04-12T00:32:38.807Z,10.67
2023-04-12T00:35:08.170Z,11.10
2023-04-12T00:37:38.844Z,10.87
2023-04-12T00:40:10.091Z,11.00
2023-04-12T00:42:40.129Z,10.53
2023-04-12T00:45:09.403Z,10.60
2023-04-12T00:47:39.204Z,10.30
2023-04-12T00:50:09.604Z,10.33
2023-04-12T00:52:39.355Z,10.17
2023-04-12T00:55:09.926Z,9.87
2023-04-12T00:57:41.162Z,11.43
2023-04-12T01:00:13.921Z,11.30
2023-04-12T01:02:48.015Z,10.37
2023-04-12T01:05:22.068Z,9.83
2023-04-12T01:08:06.299Z,10.67
2023-04-12T01:10:44.001Z,10.60
2023-04-12T01:13:23.071Z,10.00
2023-04-12T01:15:56.562Z,9.97
2023-04-12T01:18:29.253Z,10.40
2023-04-12T01:21:03.878Z,9.60
2023-04-12T01:24:08.477Z,9.87
2023-04-12T01:26:43.314Z,9.70
2023-04-12T01:29:15.638Z,10.17
2023-04-12T01:31:53.379Z,10.00
2023-04-12T01:34:26.699Z,10.17
2023-04-12T01:36:56.642Z,9.73
2023-04-12T01:39:25.080Z,10.87
2023-04-12T01:41:53.517Z,10.50
2023-04-12T01:44:23.343Z,10.10
2023-04-12T01:46:53.446Z,10.17
2023-04-12T01:49:25.771Z,10.40
2023-04-12T01:52:00.746Z,11.23
2023-04-12T01:54:31.530Z,10.73
2023-04-12T01:57:03.334Z,10.63
2023-04-12T01:59:39.392Z,11.20
2023-04-12T02:02:08.763Z,10.50
2023-04-12T02:04:38.430Z,11.50
2023-04-12T02:07:07.117Z,11.23
2023-04-12T02:09:39.537Z,10.70
2023-04-12T02:12:08.708Z,11.50
2023-04-12T02:14:39.356Z,10.80
2023-04-12T02:17:08.686Z,10.70
2023-04-12T02:19:38.478Z,10.33
2023-04-12T02:22:08.508Z,10.70
2023-04-12T02:24:37.013Z,11.03
2023-04-12T02:27:06.105Z,11.37
2023-04-12T02:29:36.156Z,11.07
2023-04-12T02:32:06.205Z,11.43
2023-04-12T02:34:36.851Z,11.00
2023-04-12T02:37:28.415Z,10.87
2023-04-12T02:39:57.187Z,11.07
2023-04-12T02:42:27.104Z,11.97
2023-04-12T02:44:55.549Z,11.10
2023-04-12T02:47:28.543Z,11.50
2023-04-12T02:49:58.910Z,10.33
2023-04-12T02:52:29.105Z,11.53
2023-04-12T02:55:07.525Z,10.87
2023-04-12T02:57:36.347Z,11.23
2023-04-12T03:00:11.944Z,10.47
2023-04-12T03:02:46.286Z,10.70
2023-04-12T03:05:22.000Z,11.30
2023-04-12T03:07:50.643Z,10.70
2023-04-12T03:10:23.579Z,10.73
2023-04-12T03:13:02.752Z,11.47
2023-04-12T03:15:36.935Z,10.10
2023-04-12T03:18:07.303Z,10.60
2023-04-12T03:20:47.628Z,10.30
2023-04-12T03:23:17.581Z,11.00
2023-04-12T03:25:50.939Z,10.37
2023-04-12T03:28:37.148Z,10.50
2023-04-12T03:31:08.502Z,9.57
2023-04-12T03:33:42.843Z,10.23
2023-04-12T03:36:21.701Z,10.43
2023-04-12T03:38:56.357Z,10.17
2023-04-12T03:41:24.912Z,10.67
2023-04-12T03:43:53.437Z,10.80
2023-04-12T03:46:22.913Z,10.80
2023-04-12T03:48:58.987Z,10.77
2023-04-12T03:51:30.920Z,10.67
2023-04-12T03:54:07.535Z,10.80
2023-04-12T03:56:54.098Z,10.53
2023-04-12T03:59:29.217Z,10.10
2023-04-12T04:01:58.482Z,10.20
2023-04-12T04:04:30.891Z,11.20
2023-04-12T04:07:04.053Z,10.73
2023-04-12T04:09:42.291Z,10.20
2023-04-12T04:12:12.582Z,11.60
2023-04-12T04:14:46.078Z,10.83
2023-04-12T04:17:23.324Z,10.97
2023-04-12T04:19:53.348Z,11.90
2023-04-12T04:22:23.133Z,12.37
2023-04-12T04:24:53.639Z,12.70
2023-04-12T04:27:22.287Z,11.33
2023-04-12T04:29:53.965Z,10.93
2023-04-12T04:32:22.828Z,10.33
2023-04-12T04:35:00.079Z,10.97
2023-04-12T04:37:37.241Z,11.00
2023-04-12T04:40:09.637Z,9.67
2023-04-12T04:42:40.185Z,10.00
2023-04-12T04:45:14.914Z,8.57
2023-04-12T04:47:46.526Z,8.33
2023-04-12T04:50:16.421Z,8.30
2023-04-12T04:52:45.105Z,8.30
2023-04-12T04:55:15.379Z,7.80
2023-04-12T04:57:46.744Z,8.27
2023-04-12T05:00:16.821Z,7.60
2023-04-12T05:02:50.113Z,7.30
2023-04-12T05:05:26.511Z,7.43
2023-04-12T05:08:05.656Z,8.50
2023-04-12T05:10:36.337Z,8.13
2023-04-12T05:13:05.134Z,8.30
2023-04-12T05:15:33.603Z,8.33
2023-04-12T05:18:02.136Z,8.43
2023-04-12T05:20:33.350Z,9.40
2023-04-12T05:23:01.968Z,8.97
2023-04-12T05:25:30.887Z,8.83
2023-04-12T05:28:11.583Z,8.80
2023-04-12T05:30:40.258Z,8.73
2023-04-12T05:33:10.574Z,9.33
2023-04-12T05:35:46.321Z,9.03
2023-04-12T05:38:14.807Z,9.00
2023-04-12T05:40:45.158Z,9.50
2023-04-12T05:43:16.232Z,9.43
2023-04-12T05:45:44.795Z,9.50
2023-04-12T05:48:13.846Z,10.97
2023-04-12T05:50:42.483Z,9.97
2023-04-12T05:53:14.564Z,10.10
2023-04-12T05:55:42.955Z,10.23
2023-04-12T05:58:11.849Z,10.40
2023-04-12T06:00:42.500Z,9.33
2023-04-12T06:03:11.826Z,9.60
2023-04-12T06:05:41.780Z,9.87
2023-04-12T06:08:10.458Z,10.87
2023-04-12T06:10:40.397Z,10.40
2023-04-12T06:13:09.033Z,9.90
2023-04-12T06:15:43.268Z,10.57
2023-04-12T06:18:13.067Z,10.17
2023-04-12T06:20:41.625Z,10.53
2023-04-12T06:23:10.008Z,10.10
2023-04-12T06:25:40.112Z,11.60
2023-04-12T06:28:08.877Z,11.93
2023-04-12T06:30:44.146Z,10.40
2023-04-12T06:33:13.355Z,10.97
2023-04-12T06:35:42.009Z,11.17
2023-04-12T06:38:10.543Z,10.43
2023-04-12T06:40:40.280Z,10.83
2023-04-12T06:43:08.644Z,10.33
2023-04-12T06:45:37.077Z,10.20
2023-04-12T06:48:05.789Z,9.40
2023-04-12T06:50:34.861Z,9.77
2023-04-12T06:53:03.496Z,9.60
2023-04-12T06:55:32.070Z,9.80
2023-04-12T06:58:01.801Z,9.80
2023-04-12T07:00:30.734Z,9.53
2023-04-12T07:02:59.337Z,8.90
2023-04-12T07:05:27.842Z,9.10
2023-04-12T07:07:56.170Z,9.40
2023-04-12T07:10:24.614Z,8.60
2023-04-12T07:12:53.112Z,8.77
2023-04-12T07:15:22.845Z,8.70
2023-04-12T07:17:52.097Z,8.95
2023-04-12T07:20:20.564Z,10.63
2023-04-12T07:22:48.972Z,9.50
2023-04-12T07:25:17.475Z,9.07
2023-04-12T07:27:45.853Z,9.17
2023-04-12T07:30:14.819Z,9.30
2023-04-12T07:32:44.633Z,8.90
2023-04-12T07:35:13.150Z,9.13
2023-04-12T07:37:41.633Z,9.38
2023-04-12T07:40:10.402Z,8.90
2023-04-12T07:42:38.957Z,9.00
2023-04-12T07:45:07.982Z,8.70
2023-04-12T07:47:36.396Z,9.00
2023-04-12T07:50:07.236Z,8.25
2023-04-12T07:52:36.044Z,8.35
2023-04-12T07:55:04.548Z,8.27
2023-04-12T07:57:34.177Z,8.32
2023-04-12T08:00:03.002Z,8.52
2023-04-12T08:02:41.851Z,8.40
2023-04-12T08:05:11.951Z,8.95
2023-04-12T08:07:40.351Z,9.00
2023-04-12T08:10:09.654Z,8.30
2023-04-12T08:12:38.124Z,8.00
2023-04-12T08:15:07.165Z,8.55
2023-04-12T08:17:35.778Z,7.95
2023-04-12T08:20:04.710Z,8.32
2023-04-12T08:22:34.398Z,8.43
2023-04-12T08:25:02.807Z,8.23
2023-04-12T08:27:31.258Z,7.75
2023-04-12T08:29:59.568Z,7.93
2023-04-12T08:32:28.102Z,7.30
2023-04-12T08:34:56.610Z,7.78
2023-04-12T08:37:25.345Z,9.00
2023-04-12T08:39:55.195Z,8.02
2023-04-12T08:42:24.070Z,8.95
2023-04-12T08:44:54.072Z,8.40
2023-04-12T08:47:23.500Z,8.77
2023-04-12T08:49:52.182Z,9.52
2023-04-12T08:52:20.665Z,9.75
2023-04-12T08:54:49.202Z,9.32
2023-04-12T08:57:20.369Z,8.70
2023-04-12T08:59:51.166Z,8.35
2023-04-12T09:02:19.792Z,8.50
2023-04-12T09:04:53.271Z,8.98
2023-04-12T09:07:23.493Z,9.13
2023-04-12T09:09:52.224Z,8.95
2023-04-12T09:12:24.043Z,7.97
2023-04-12T09:15:09.725Z,8.00
2023-04-12T09:17:39.120Z,8.40
2023-04-12T09:20:25.836Z,8.32
2023-04-12T09:22:55.809Z,9.00
2023-04-12T09:25:45.207Z,7.93
2023-04-12T09:28:23.302Z,8.52
2023-04-12T09:30:53.365Z,8.43
2023-04-12T09:33:23.592Z,8.30
2023-04-12T09:35:52.360Z,10.20
2023-04-12T09:38:20.742Z,8.25
2023-04-12T09:40:50.347Z,7.97
2023-04-12T09:43:18.838Z,8.70
2023-04-12T09:45:48.812Z,8.32
2023-04-12T09:48:22.256Z,8.75
2023-04-12T09:50:59.869Z,8.32
2023-04-12T09:53:29.042Z,8.20
2023-04-12T09:55:58.851Z,7.88
2023-04-12T09:58:29.967Z,8.15
2023-04-12T10:01:03.673Z,7.60
2023-04-12T10:03:32.262Z,8.23
2023-04-12T10:06:01.028Z,8.00
2023-04-12T10:08:29.590Z,8.15
2023-04-12T10:10:58.965Z,8.07
2023-04-12T10:13:29.002Z,7.93
2023-04-12T10:15:57.575Z,8.07
2023-04-12T10:18:28.530Z,9.07
2023-04-12T10:20:57.377Z,8.63
2023-04-12T10:23:26.929Z,8.00
2023-04-12T10:25:57.192Z,9.20
2023-04-12T10:28:27.321Z,7.75
2023-04-12T10:30:59.196Z,8.63
2023-04-12T10:33:31.650Z,8.73
2023-04-12T10:36:11.010Z,8.90
2023-04-12T10:38:47.788Z,8.77
2023-04-12T10:41:20.515Z,9.85
2023-04-12T10:43:50.334Z,8.90
2023-04-12T10:46:51.996Z,9.40
2023-04-12T10:49:21.852Z,8.90
2023-04-12T10:52:16.021Z,9.20
2023-04-12T10:54:44.773Z,9.07
2023-04-12T10:57:47.296Z,9.52
2023-04-12T11:00:16.977Z,8.88
2023-04-12T11:03:10.206Z,9.35
2023-04-12T11:06:12.597Z,8.23
2023-04-12T11:09:07.475Z,7.70
2023-04-12T11:11:43.458Z,8.65
2023-04-12T11:14:12.124Z,8.20
2023-04-12T11:17:13.873Z,8.55
2023-04-12T11:19:44.511Z,8.40
2023-04-12T11:22:15.804Z,8.02
2023-04-12T11:24:46.238Z,8.27
2023-04-12T11:27:16.383Z,9.27
2023-04-12T11:29:46.365Z,10.00
2023-04-12T11:32:16.354Z,8.73
2023-04-12T11:34:47.252Z,8.52
2023-04-12T11:37:19.231Z,8.40
2023-04-12T11:39:49.220Z,8.75
2023-04-12T11:42:20.407Z,9.07
2023-04-12T11:44:57.134Z,9.25
2023-04-12T11:47:28.483Z,8.68
2023-04-12T11:49:58.961Z,8.55
2023-04-12T11:52:33.416Z,7.78
2023-04-12T11:55:05.278Z,7.63
2023-04-12T11:57:37.094Z,8.68
2023-04-12T12:00:07.224Z,8.63
2023-04-12T12:02:52.297Z,7.90
2023-04-12T12:05:30.920Z,8.20
2023-04-12T12:08:06.134Z,7.45
2023-04-12T12:10:44.351Z,8.30
2023-04-12T12:13:23.245Z,7.90
2023-04-12T12:15:53.953Z,7.78
2023-04-12T12:18:29.120Z,8.88
2023-04-12T12:20:57.539Z,8.70
2023-04-12T12:23:31.724Z,8.60
2023-04-12T12:26:16.992Z,8.80
2023-04-12T12:28:52.128Z,9.27
2023-04-12T12:31:22.591Z,8.18
2023-04-12T12:33:56.920Z,8.70
2023-04-12T12:36:32.869Z,9.90
2023-04-12T12:39:09.434Z,9.90
2023-04-12T12:41:39.093Z,9.35
2023-04-12T12:44:08.409Z,9.60
2023-04-12T12:49:08.366Z,9.23
2023-04-12T12:51:36.732Z,8.60
2023-04-12T12:54:06.817Z,9.10
2023-04-12T12:56:36.021Z,9.30
2023-04-12T12:59:04.358Z,9.35
2023-04-12T13:01:32.931Z,9.40
2023-04-12T13:04:01.776Z,8.75
2023-04-12T13:06:30.295Z,8.68
2023-04-12T13:08:59.035Z,8.45
2023-04-12T13:11:28.980Z,9.25
2023-04-12T13:13:57.482Z,9.68
2023-04-12T13:16:27.193Z,8.48
2023-04-12T13:18:56.433Z,8.70
2023-04-12T13:21:25.100Z,9.25
2023-04-12T13:23:53.510Z,8.70
2023-04-12T13:26:22.231Z,7.88
2023-04-12T13:28:52.001Z,7.97
2023-04-12T13:31:20.774Z,8.88
2023-04-12T13:33:49.192Z,8.85
2023-04-12T13:36:17.589Z,9.00
2023-04-12T13:38:46.044Z,8.98
2023-04-12T13:41:14.517Z,9.07
2023-04-12T13:43:42.863Z,9.23
2023-04-12T13:46:13.042Z,9.07
2023-04-12T13:48:41.745Z,8.85
2023-04-12T13:51:10.913Z,9.45
2023-04-12T13:53:39.272Z,8.98
2023-04-12T13:56:08.451Z,9.10
2023-04-12T13:58:39.771Z,9.60
2023-04-12T14:01:08.723Z,9.48
2023-04-12T14:03:38.719Z,9.38
2023-04-12T14:06:08.275Z,9.07
2023-04-12T14:08:37.240Z,8.90
2023-04-12T14:11:06.507Z,9.10
2023-04-12T14:13:34.986Z,9.10
2023-04-12T14:16:03.884Z,9.27
2023-04-12T14:18:32.315Z,9.60
2023-04-12T14:21:03.626Z,9.40
2023-04-12T14:23:32.146Z,9.82
2023-04-12T14:26:00.610Z,9.63
2023-04-12T14:28:31.101Z,9.60
2023-04-12T14:31:02.984Z,9.95
2023-04-12T14:33:33.246Z,9.20
2023-04-12T14:36:05.177Z,9.65
2023-04-12T14:38:33.871Z,8.90
2023-04-12T14:41:02.755Z,8.93
2023-04-12T14:43:31.178Z,8.40
2023-04-12T14:45:59.646Z,9.10
2023-04-12T14:48:28.020Z,9.50
2023-04-12T14:50:56.403Z,9.20
2023-04-12T14:53:26.099Z,9.20
2023-04-12T14:55:54.453Z,9.20
2023-04-12T14:58:22.954Z,9.40
2023-04-12T15:00:51.360Z,9.40
2023-04-12T15:03:20.996Z,9.20
2023-04-12T15:05:49.917Z,9.50
2023-04-12T15:08:18.201Z,9.50
2023-04-12T15:10:48.010Z,9.83
2023-04-12T15:13:16.710Z,9.90
2023-04-12T15:15:47.548Z,9.10
2023-04-12T15:18:16.690Z,9.20
2023-04-12T15:20:45.153Z,8.97
2023-04-12T15:23:13.735Z,9.07
2023-04-12T15:25:42.322Z,9.93
2023-04-12T15:28:12.105Z,9.50
2023-04-12T15:30:40.527Z,8.67
2023-04-12T15:33:08.912Z,8.80
2023-04-12T15:35:37.300Z,9.53
2023-04-12T15:38:05.778Z,8.90
2023-04-12T15:40:34.122Z,10.13
2023-04-12T15:43:02.547Z,9.50
2023-04-12T15:45:32.458Z,9.57
2023-04-12T15:48:01.215Z,9.80
2023-04-12T15:50:29.640Z,8.87
2023-04-12T15:52:59.468Z,9.40
2023-04-12T15:55:27.919Z,8.57
2023-04-12T15:57:57.177Z,8.87
2023-04-12T16:00:27.381Z,8.20
2023-04-12T16:02:57.830Z,8.97
2023-04-12T16:05:26.848Z,8.77
2023-04-12T16:07:56.650Z,10.40
2023-04-12T16:10:25.333Z,9.03
2023-04-12T16:12:55.204Z,9.63
2023-04-12T16:15:23.923Z,9.07
2023-04-12T16:17:54.573Z,9.60
2023-04-12T16:20:25.140Z,9.80
2023-04-12T16:22:55.382Z,9.47
2023-04-12T16:25:25.322Z,9.53
2023-04-12T16:27:53.787Z,9.80
2023-04-12T16:30:23.025Z,9.80
2023-04-12T16:32:52.274Z,8.77
2023-04-12T16:35:20.730Z,9.50
2023-04-12T16:37:50.957Z,8.93
2023-04-12T16:40:19.629Z,8.97
2023-04-12T16:42:48.013Z,8.90
2023-04-12T16:45:16.673Z,8.90
2023-04-12T16:47:47.566Z,8.80
2023-04-12T16:50:16.678Z,8.87
2023-04-12T16:52:45.206Z,8.67
2023-04-12T16:55:16.162Z,8.70
2023-04-12T16:57:46.323Z,8.40
2023-04-12T17:00:20.680Z,8.73
2023-04-12T17:02:51.754Z,9.03
2023-04-12T17:05:21.789Z,8.80
2023-04-12T17:07:54.100Z,9.10
2023-04-12T17:10:25.669Z,8.80
2023-04-12T17:12:56.704Z,9.03
2023-04-12T17:15:25.884Z,9.43
2023-04-12T17:18:00.910Z,8.10
2023-04-12T17:20:30.680Z,9.00
2023-04-12T17:22:59.453Z,8.97
2023-04-12T17:25:31.320Z,8.97
2023-04-12T17:28:01.466Z,9.10
2023-04-12T17:30:30.289Z,9.30
2023-04-12T17:33:01.517Z,9.07
2023-04-12T17:35:30.610Z,9.30
2023-04-12T17:37:59.109Z,8.60
2023-04-12T17:40:28.839Z,9.30
2023-04-12T17:42:58.483Z,10.40
2023-04-12T17:45:27.135Z,9.70
2023-04-12T17:47:55.796Z,11.50
2023-04-12T17:50:24.470Z,12.60
2023-04-12T17:52:52.965Z,12.23
2023-04-12T17:55:23.829Z,14.77
2023-04-12T17:57:53.623Z,14.80
2023-04-12T18:00:24.236Z,19.27
2023-04-12T18:02:52.833Z,17.13
2023-04-12T18:05:21.776Z,15.60
2023-04-12T18:07:50.584Z,14.07
2023-04-12T18:10:21.631Z,13.57
2023-04-12T18:12:50.356Z,15.70
2023-04-12T18:15:20.681Z,13.77
2023-04-12T18:17:49.243Z,13.23
2023-04-12T18:20:17.880Z,11.97
2023-04-12T18:22:46.507Z,11.47
2023-04-12T18:25:14.971Z,12.30
2023-04-12T18:27:43.385Z,11.63
2023-04-12T18:30:12.097Z,13.17
2023-04-12T18:32:41.958Z,13.27
2023-04-12T18:35:10.916Z,13.00
2023-04-12T18:37:40.908Z,11.20
2023-04-12T18:40:10.579Z,11.30
2023-04-12T18:42:39.103Z,10.57
2023-04-12T18:45:09.414Z,11.23
2023-04-12T18:47:39.314Z,11.10
2023-04-12T18:50:10.224Z,10.90
2023-04-12T18:52:38.857Z,12.20
2023-04-12T18:55:08.198Z,12.63
2023-04-12T18:57:36.793Z,13.93
2023-04-12T19:00:10.861Z,13.90
2023-04-12T19:02:39.524Z,13.63
2023-04-12T19:05:10.435Z,14.00
2023-04-12T19:07:39.084Z,13.53
2023-04-12T19:10:08.672Z,12.50
2023-04-12T19:12:37.139Z,11.50
2023-04-12T19:15:07.136Z,11.63
2023-04-12T19:17:38.978Z,10.93
2023-04-12T19:20:10.967Z,10.67
2023-04-12T19:22:39.570Z,9.50
2023-04-12T19:25:09.612Z,9.43
2023-04-12T19:27:39.673Z,9.77
2023-04-12T19:30:11.048Z,10.47
2023-04-12T19:32:39.746Z,9.87
2023-04-12T19:35:11.561Z,10.03
2023-04-12T19:37:40.256Z,10.43
2023-04-12T19:40:12.602Z,10.87
2023-04-12T19:42:42.370Z,9.20
2023-04-12T19:45:11.112Z,10.00
2023-04-12T19:47:44.893Z,9.37
2023-04-12T19:50:17.034Z,10.00
2023-04-12T19:52:45.685Z,9.93
2023-04-12T19:55:15.830Z,11.23
2023-04-12T19:57:44.327Z,10.07
2023-04-12T20:00:19.651Z,9.60
2023-04-12T20:02:49.101Z,8.80
2023-04-12T20:05:19.423Z,9.70
2023-04-12T20:07:47.906Z,9.20
2023-04-12T20:10:16.673Z,8.90
2023-04-12T20:12:45.550Z,9.97
2023-04-12T20:15:14.202Z,9.67
2023-04-12T20:17:43.878Z,12.93
2023-04-12T20:20:14.179Z,12.83
2023-04-12T20:22:46.557Z,13.70
2023-04-12T20:25:15.324Z,12.53
2023-04-12T20:27:48.643Z,12.23
2023-04-12T20:30:17.705Z,12.23
2023-04-12T20:32:46.361Z,12.07
2023-04-12T20:35:15.419Z,11.53
2023-04-12T20:37:49.595Z,13.67
2023-04-12T20:40:19.091Z,13.70
2023-04-12T20:42:48.002Z,12.47
2023-04-12T20:45:17.993Z,13.80
2023-04-12T20:47:46.654Z,12.83
2023-04-12T20:50:15.765Z,11.90
2023-04-12T20:52:46.298Z,12.30
2023-04-12T20:55:15.241Z,11.77
2023-04-12T20:57:43.936Z,11.60
2023-04-12T21:00:19.167Z,12.40
2023-04-12T21:02:48.940Z,12.37
2023-04-12T21:05:17.995Z,12.00
2023-04-12T21:07:47.919Z,11.63
2023-04-12T21:10:16.638Z,12.50
2023-04-12T21:12:47.233Z,11.67
2023-04-12T21:15:18.727Z,11.37
2023-04-12T21:17:47.145Z,10.50
2023-04-12T21:20:16.902Z,11.50
2023-04-12T21:22:48.256Z,12.60
2023-04-12T21:25:17.250Z,12.80
2023-04-12T21:27:47.316Z,13.73
2023-04-12T21:30:16.334Z,15.60
2023-04-12T21:32:44.943Z,14.40
2023-04-12T21:35:16.480Z,13.57
2023-04-12T21:37:44.902Z,12.87
2023-04-12T21:40:15.098Z,13.33
2023-04-12T21:42:44.931Z,12.00
2023-04-12T21:45:14.388Z,11.50
2023-04-12T21:47:43.629Z,13.50
2023-04-12T21:50:12.993Z,12.10
2023-04-12T21:52:41.825Z,12.83
2023-04-12T21:55:10.437Z,14.37
2023-04-12T21:57:40.219Z,14.20
2023-04-12T22:00:10.106Z,13.53
2023-04-12T22:02:41.743Z,13.60
2023-04-12T22:05:10.685Z,12.87
2023-04-12T22:07:41.594Z,13.83
2023-04-12T22:10:12.289Z,12.80
2023-04-12T22:12:42.425Z,13.60
2023-04-12T22:15:13.710Z,12.57
2023-04-12T22:17:42.268Z,12.90
2023-04-12T22:20:12.641Z,13.70
2023-04-12T22:22:41.408Z,13.17
2023-04-12T22:25:12.796Z,12.70
2023-04-12T22:27:46.854Z,13.00
2023-04-12T22:30:15.972Z,17.03
2023-04-12T22:32:44.521Z,17.30
2023-04-12T22:35:13.202Z,25.50
2023-04-12T22:37:43.398Z,26.87
2023-04-12T22:40:14.029Z,23.00
2023-04-12T22:42:47.466Z,22.63
2023-04-12T22:45:16.790Z,20.00
2023-04-12T22:47:45.784Z,16.47
2023-04-12T22:50:15.129Z,16.10
2023-04-12T22:52:43.620Z,14.80
2023-04-12T22:55:14.408Z,13.83
2023-04-12T22:57:45.021Z,12.93
2023-04-12T23:00:17.082Z,13.27
2023-04-12T23:02:48.764Z,12.53
2023-04-12T23:05:17.645Z,13.17
2023-04-12T23:07:46.195Z,12.37
2023-04-12T23:10:14.620Z,11.57
2023-04-12T23:12:44.243Z,12.40
2023-04-12T23:15:12.753Z,11.93
2023-04-12T23:17:41.308Z,11.77
2023-04-12T23:20:13.185Z,11.83
2023-04-12T23:22:57.320Z,11.57
2023-04-12T23:25:38.229Z,12.07
2023-04-12T23:28:13.414Z,11.50
2023-04-12T23:30:45.213Z,11.37
2023-04-12T23:33:14.044Z,10.87
2023-04-12T23:35:43.837Z,10.93
2023-04-12T23:38:15.736Z,12.27
2023-04-12T23:40:44.572Z,11.43
2023-04-12T23:43:14.210Z,10.60
2023-04-12T23:45:42.663Z,10.77
2023-04-12T23:48:11.150Z,11.90
2023-04-12T23:50:40.317Z,11.80
2023-04-12T23:53:08.808Z,10.83
2023-04-12T23:55:37.386Z,11.17
2023-04-12T23:58:05.841Z,11.27
